Time;durP1;ratioP1;P1;durP2;ratioP2;P2;SDS_P1;SDS_P2;PMS_P1;PMS_P2;Temp;Humidity;BMP_temperature;BMP_pressure;BME280_temperature;BME280_humidity;BME280_pressure;Samples;Min_cycle;Max_cycle;Signal;HPM_P1;HPM_P2
2022/02/22 00:02:17;;;;;;;7.72;2.08;;;4.70;1.00;;;4.87;77.64;99767.78;4976005;28;20212;-69
2022/02/22 00:04:45;;;;;;;9.98;3.90;;;4.80;1.00;;;4.86;77.71;99768.81;4975867;28;20176;-69
2022/02/22 00:07:14;;;;;;;7.97;2.03;;;4.80;1.00;;;4.86;77.49;99768.81;4976098;28;20182;-69
2022/02/22 00:09:42;;;;;;;5.68;2.42;;;4.70;1.00;;;4.87;77.62;99773.16;4974268;28;20251;-70
2022/02/22 00:12:11;;;;;;;11.23;3.83;;;4.80;1.00;;;4.84;77.26;99776.22;4976485;28;20322;-70
2022/02/22 00:14:39;;;;;;;13.00;2.53;;;4.80;99.90;;;4.86;77.88;99782.22;4976204;28;20202;-69
2022/02/22 00:17:10;;;;;;;9.40;2.65;;;4.80;1.00;;;4.88;77.39;99788.22;4976624;28;20183;-71
2022/02/22 00:19:39;;;;;;;6.25;2.15;;;4.80;1.00;;;4.89;77.48;99789.91;4976268;28;20184;-69
2022/02/22 00:22:08;;;;;;;8.00;2.22;;;4.80;1.00;;;4.91;77.87;99794.03;4976271;28;20212;-70
2022/02/22 00:24:36;;;;;;;8.13;2.20;;;4.80;1.00;;;4.89;77.78;99808.66;4975727;28;20715;-69
2022/02/22 00:27:05;;;;;;;4.55;1.95;;;4.80;1.00;;;4.94;77.26;99801.66;4975609;28;20195;-70
2022/02/22 00:29:35;;;;;;;9.25;2.17;;;4.90;99.90;;;4.94;77.43;99809.72;4975544;28;20199;-69
2022/02/22 00:32:05;;;;;;;11.07;3.13;;;4.80;99.90;;;4.92;77.48;99808.25;4975528;28;20234;-69
2022/02/22 00:34:35;;;;;;;8.98;1.80;;;4.90;49.00;;;4.97;77.09;99808.53;4975602;28;20180;-69
2022/02/22 00:37:04;;;;;;;9.13;2.55;;;4.90;99.90;;;5.00;76.89;99818.84;4975465;28;20263;-70
2022/02/22 00:39:33;;;;;;;13.77;2.90;;;4.90;99.90;;;4.95;76.95;99826.63;4975379;28;20167;-68
2022/02/22 00:42:01;;;;;;;11.32;3.80;;;4.90;46.60;;;4.98;77.16;99828.94;4975241;28;20611;-70
2022/02/22 00:44:29;;;;;;;5.60;2.60;;;4.90;98.50;;;4.99;77.33;99835.94;4975203;28;20195;-69
2022/02/22 00:46:58;;;;;;;8.68;3.05;;;4.90;99.90;;;4.97;77.39;99829.97;4975295;28;20176;-69
2022/02/22 00:49:26;;;;;;;3.95;2.03;;;4.90;99.90;;;4.94;77.69;99835.72;4973608;28;20231;-69
2022/02/22 00:51:56;;;;;;;11.18;2.28;;;4.90;1.00;;;4.94;77.87;99846.44;4974656;28;20270;-69
2022/02/22 00:54:25;;;;;;;6.32;1.95;;;4.90;1.00;;;4.96;77.79;99850.56;4975083;28;20187;-69
2022/02/22 00:56:55;;;;;;;7.15;1.85;;;4.90;99.90;;;4.98;77.95;99855.75;4974876;28;20195;-69
2022/02/22 00:59:24;;;;;;;9.80;3.25;;;4.90;1.00;;;5.03;77.95;99861.38;4974862;28;20179;-69
2022/02/22 01:01:52;;;;;;;10.75;2.35;;;4.90;61.80;;;5.12;78.55;99865.59;4974730;28;20218;-69
2022/02/22 01:04:21;;;;;;;5.53;2.40;;;5.00;99.90;;;5.08;78.26;99865.13;4974636;28;20191;-69
2022/02/22 01:06:49;;;;;;;5.32;2.22;;;5.00;99.90;;;5.06;78.57;99864.50;4974693;28;20539;-69
2022/02/22 01:09:19;;;;;;;4.63;1.70;;;5.00;99.90;;;5.09;78.64;99866.78;4974737;28;20200;-69
2022/02/22 01:11:47;;;;;;;7.20;2.60;;;5.00;99.90;;;5.13;78.68;99877.97;4974786;28;20278;-68
2022/02/22 01:14:16;;;;;;;5.88;2.20;;;5.10;99.90;;;5.16;78.42;99880.28;4974507;28;20192;-68
2022/02/22 01:16:44;;;;;;;4.75;2.03;;;5.10;99.90;;;5.22;78.43;99883.03;4974890;28;20172;-68
2022/02/22 01:19:13;;;;;;;6.50;2.05;;;5.10;99.90;;;5.19;78.09;99886.06;4974691;28;20206;-68
2022/02/22 01:21:41;;;;;;;4.72;2.72;;;5.10;99.90;;;5.27;77.51;99882.44;4974506;28;20213;-69
2022/02/22 01:24:10;;;;;;;9.52;2.67;;;5.10;99.90;;;5.28;77.79;99889.44;4974809;28;20191;-71
2022/02/22 01:26:40;;;;;;;17.60;3.38;;;5.20;99.90;;;5.30;77.70;99895.47;4974378;28;20202;-70
2022/02/22 01:29:08;;;;;;;4.50;2.05;;;5.20;99.90;;;5.32;77.53;99904.16;4974448;28;20207;-69
2022/02/22 01:31:37;;;;;;;10.50;2.60;;;5.20;99.90;;;5.35;77.37;99900.25;4974326;28;20353;-69
2022/02/22 01:34:05;;;;;;;6.78;1.80;;;5.20;99.90;;;5.34;77.40;99907.47;4972818;28;20205;-69
2022/02/22 01:36:34;;;;;;;8.10;2.13;;;5.20;99.90;;;5.34;77.21;99912.00;4974386;28;20195;-69
2022/02/22 01:39:04;;;;;;;5.88;2.20;;;5.30;99.90;;;5.35;77.41;99919.84;4973849;28;20218;-69
2022/02/22 01:41:33;;;;;;;7.43;2.22;;;5.30;99.90;;;5.33;77.68;99919.22;4975507;28;20215;-69
2022/02/22 01:44:03;;;;;;;5.20;1.98;;;5.20;99.90;;;5.38;77.39;99916.78;4974826;28;20260;-69
2022/02/22 01:46:31;;;;;;;12.02;3.08;;;5.30;99.90;;;5.34;77.32;99923.56;4975607;28;20183;-69
2022/02/22 01:49:00;;;;;;;10.43;2.80;;;5.30;99.90;;;5.42;76.80;99931.47;4974876;28;20250;-69
2022/02/22 01:51:28;;;;;;;5.80;2.45;;;5.30;99.90;;;5.41;77.03;99940.56;4976231;28;20652;-69
2022/02/22 01:53:57;;;;;;;3.70;1.65;;;5.30;99.90;;;5.41;76.56;99935.19;4975142;28;20207;-69
2022/02/22 01:56:26;;;;;;;8.77;2.10;;;5.30;99.90;;;5.41;76.96;99956.66;4974818;28;20199;-69
2022/02/22 01:58:54;;;;;;;5.22;1.63;;;5.30;99.90;;;5.43;76.98;99954.59;4975739;28;20171;-70
2022/02/22 02:01:24;;;;;;;5.82;2.20;;;5.30;99.90;;;5.35;77.08;99952.06;4975563;28;20219;-69
2022/02/22 02:03:54;;;;;;;5.00;1.80;;;5.30;99.90;;;5.37;77.19;99960.75;4974970;28;20648;-69
2022/02/22 02:06:22;;;;;;;3.88;1.55;;;5.30;99.90;;;5.36;76.54;99961.78;4975010;28;20637;-69
2022/02/22 02:08:50;;;;;;;9.25;3.03;;;5.30;99.90;;;5.40;77.59;99960.34;4974919;28;20629;-69
2022/02/22 02:11:19;;;;;;;7.57;2.70;;;5.30;99.90;;;5.36;77.47;99974.34;4974706;28;20730;-69
2022/02/22 02:13:48;;;;;;;9.85;1.90;;;5.30;99.90;;;5.41;77.25;99982.66;4974464;28;20206;-68
2022/02/22 02:16:17;;;;;;;7.00;2.25;;;5.30;99.90;;;5.41;76.77;99988.84;4974431;28;20199;-70
2022/02/22 02:18:46;;;;;;;7.32;2.67;;;5.30;99.90;;;5.42;76.88;99985.13;4974267;28;20187;-68
2022/02/22 02:21:19;;;;;;;9.00;1.92;;;5.30;99.90;;;5.40;76.76;99992.56;4956564;28;20215;-69
2022/02/22 02:23:49;;;;;;;4.18;2.03;;;5.30;99.90;;;5.46;76.52;99996.34;4974419;28;20555;-69
2022/02/22 02:26:18;;;;;;;19.85;3.47;;;5.30;99.90;;;5.41;76.61;99985.34;4974544;28;20230;-69
2022/02/22 02:28:46;;;;;;;7.80;2.60;;;5.30;99.90;;;5.43;76.68;99992.16;4974271;28;20557;-68
2022/02/22 02:31:15;;;;;;;6.45;2.13;;;5.30;99.90;;;5.44;76.95;100009.94;4973922;28;20203;-68
2022/02/22 02:33:48;;;;;;;7.70;2.97;;;5.30;99.90;;;5.33;77.62;100009.59;4974353;28;20182;-70
2022/02/22 02:36:16;;;;;;;12.85;2.92;;;5.30;99.90;;;5.33;77.66;100009.59;4973866;28;20196;-68
2022/02/22 02:38:45;;;;;;;7.95;2.55;;;5.20;99.90;;;5.38;77.97;100015.22;4973897;28;20546;-69
2022/02/22 02:41:18;;;;;;;8.13;2.70;;;5.30;99.90;;;5.36;78.08;100020.78;4973567;28;20207;-69
2022/02/22 02:43:47;;;;;;;10.05;2.70;;;5.30;99.90;;;5.37;78.47;100014.41;4973370;28;20258;-68
2022/02/22 02:46:15;;;;;;;12.70;2.72;;;5.30;99.90;;;5.27;78.51;100029.97;4973980;28;20260;-69
2022/02/22 02:48:43;;;;;;;13.50;2.97;;;5.20;99.90;;;5.24;78.69;100036.53;4973764;28;20236;-68
2022/02/22 02:51:12;;;;;;;9.18;2.00;;;5.20;99.90;;;5.21;78.82;100034.25;4973594;28;20212;-70
2022/02/22 02:53:40;;;;;;;8.70;3.63;;;5.20;99.90;;;5.25;78.58;100037.38;4974114;28;20180;-68
2022/02/22 02:56:08;;;;;;;6.30;2.95;;;5.10;99.90;;;5.17;78.56;100034.81;4973862;28;20550;-68
2022/02/22 02:58:38;;;;;;;10.95;2.83;;;5.10;99.90;;;5.22;78.77;100032.41;4973880;28;20582;-69
2022/02/22 03:01:06;;;;;;;5.88;2.38;;;5.10;99.90;;;5.33;78.57;100044.47;4973596;28;20188;-69
2022/02/22 03:03:35;;;;;;;8.38;2.92;;;5.20;99.90;;;5.23;78.84;100039.41;4973802;28;20167;-69
2022/02/22 03:06:04;;;;;;;12.60;2.95;;;5.20;99.90;;;5.25;79.15;100050.78;4971725;28;20191;-69
2022/02/22 03:08:32;;;;;;;10.27;3.30;;;5.20;99.90;;;5.26;79.71;100055.13;4972998;28;20255;-69
2022/02/22 03:11:00;;;;;;;8.55;2.15;;;5.20;99.90;;;5.26;80.49;100052.44;4972873;28;20258;-68
2022/02/22 03:13:31;;;;;;;7.90;3.67;;;5.20;99.90;;;5.27;79.94;100056.81;4973688;28;20175;-68
2022/02/22 03:16:00;;;;;;;15.27;3.42;;;5.20;99.90;;;5.25;79.40;100058.81;4976405;28;20271;-69
2022/02/22 03:18:29;;;;;;;6.72;2.53;;;5.20;99.90;;;5.23;79.56;100075.09;4976563;28;20207;-69
2022/02/22 03:20:57;;;;;;;11.13;2.72;;;5.20;99.90;;;5.23;79.82;100077.78;4976745;28;20656;-69
2022/02/22 03:23:25;;;;;;;5.50;2.20;;;5.20;99.90;;;5.26;79.79;100081.97;4976394;28;20203;-68
2022/02/22 03:25:55;;;;;;;5.28;2.50;;;5.20;99.90;;;5.24;79.84;100092.03;4976647;28;20604;-69
2022/02/22 03:28:24;;;;;;;8.95;2.30;;;5.20;99.90;;;5.18;80.16;100088.25;4977063;28;20186;-69
2022/02/22 03:30:52;;;;;;;4.03;1.65;;;5.10;99.90;;;5.20;79.53;100093.44;4976694;28;20211;-69
2022/02/22 03:33:23;;;;;;;11.73;3.47;;;5.10;99.90;;;5.22;79.66;100086.03;4977063;28;20180;-69
2022/02/22 03:35:51;;;;;;;15.52;3.97;;;5.10;99.90;;;5.21;79.68;100093.25;4977366;28;20523;-68
2022/02/22 03:38:20;;;;;;;12.35;2.95;;;5.10;99.90;;;5.23;79.24;100099.25;4978164;28;20211;-68
2022/02/22 03:40:48;;;;;;;5.60;2.00;;;5.10;99.90;;;5.22;79.15;100107.50;4976699;28;20254;-69
2022/02/22 03:43:17;;;;;;;6.10;1.80;;;5.10;99.90;;;5.30;79.16;100117.28;4978291;28;20186;-69
2022/02/22 03:45:46;;;;;;;9.75;2.58;;;5.20;99.90;;;5.29;78.77;100113.75;4977298;28;20549;-69
2022/02/22 03:48:14;;;;;;;21.83;3.47;;;5.20;99.90;;;5.24;78.82;100110.81;4975566;28;20644;-69
2022/02/22 03:50:44;;;;;;;13.10;3.90;;;5.20;99.90;;;5.22;78.22;100115.53;4976674;28;20278;-69
2022/02/22 03:53:14;;;;;;;6.80;2.58;;;5.20;99.90;;;5.31;78.68;100127.84;4976080;28;20253;-69
2022/02/22 03:55:45;;;;;;;5.25;2.00;;;5.20;99.90;;;5.30;78.26;100136.06;4975980;28;20180;-69
2022/02/22 03:58:14;;;;;;;10.55;2.15;;;5.20;99.90;;;5.28;77.33;100138.91;4975600;28;20664;-69
2022/02/22 04:00:44;;;;;;;13.55;3.30;;;5.20;99.90;;;5.29;77.21;100150.47;4975895;28;20679;-69
2022/02/22 04:03:13;;;;;;;8.43;3.17;;;5.20;99.90;;;5.19;77.58;100161.50;4975708;28;20262;-69
2022/02/22 04:05:46;;;;;;;8.07;2.70;;;5.20;99.90;;;5.15;77.11;100160.19;4976167;28;20315;-69
2022/02/22 04:08:40;;;;;;;15.10;3.75;;;5.10;99.90;;;5.10;76.94;100173.31;4975561;28;20654;-68
2022/02/22 04:11:08;;;;;;;12.30;3.80;;;5.10;99.90;;;5.16;75.75;100168.06;4975549;28;20200;-69
2022/02/22 04:13:36;;;;;;;8.90;3.30;;;5.10;99.90;;;5.09;74.79;100177.03;4976108;28;20239;-69
2022/02/22 04:16:05;;;;;;;16.67;3.22;;;5.00;99.90;;;5.12;73.65;100193.59;4976003;28;20668;-69
2022/02/22 04:18:34;;;;;;;13.70;2.97;;;5.00;99.90;;;5.06;71.84;100188.97;4976145;28;20198;-69
2022/02/22 04:21:04;;;;;;;21.27;4.22;;;5.00;99.90;;;5.07;72.36;100197.84;4975541;28;20229;-69
2022/02/22 04:23:32;;;;;;;9.95;2.45;;;5.00;99.90;;;5.12;71.88;100200.81;4975994;28;20568;-69
2022/02/22 04:26:00;;;;;;;11.27;2.45;;;5.00;99.90;;;5.13;71.00;100207.84;4978458;28;20254;-68
2022/02/22 04:28:29;;;;;;;16.70;2.95;;;5.10;1.00;;;5.14;70.57;100220.22;4976059;28;20187;-69
2022/02/22 04:30:57;;;;;;;15.48;4.00;;;5.00;1.00;;;5.12;70.43;100230.31;4975797;28;20210;-70
2022/02/22 04:33:26;;;;;;;11.57;3.22;;;5.00;99.90;;;5.08;69.11;100223.66;4975373;28;20188;-69
2022/02/22 04:35:54;;;;;;;17.23;4.07;;;5.00;99.90;;;5.09;68.88;100236.03;4975240;28;20672;-69
2022/02/22 04:38:23;;;;;;;14.82;4.13;;;5.00;99.90;;;5.06;68.70;100247.13;4975073;28;20672;-69
2022/02/22 04:40:54;;;;;;;13.38;4.30;;;5.00;99.90;;;5.03;68.10;100248.34;4974917;28;20190;-69
2022/02/22 04:43:22;;;;;;;22.33;4.82;;;5.00;99.90;;;4.96;68.30;100254.59;4974900;28;20230;-68
2022/02/22 04:45:51;;;;;;;9.27;3.83;;;4.90;99.90;;;4.93;67.23;100249.59;4974993;28;20645;-69
2022/02/22 04:48:20;;;;;;;16.40;3.10;;;4.90;99.90;;;4.92;68.37;100261.34;4974560;28;20188;-69
2022/02/22 04:50:48;;;;;;;13.77;3.10;;;4.90;99.90;;;4.90;67.52;100276.75;4974452;28;20210;-69
2022/02/22 04:53:17;;;;;;;8.90;2.45;;;4.80;99.90;;;4.87;67.13;100274.44;4974633;28;20266;-69
2022/02/22 04:55:47;;;;;;;10.05;3.17;;;4.80;99.90;;;4.85;66.34;100276.47;4974633;28;20180;-69
2022/02/22 04:58:15;;;;;;;9.48;3.25;;;4.80;99.90;;;4.84;66.30;100280.19;4974736;28;20190;-68
2022/02/22 05:00:46;;;;;;;18.27;2.70;;;4.70;99.90;;;4.77;66.80;100278.22;4974645;28;20183;-68
2022/02/22 05:03:15;;;;;;;17.40;4.60;;;4.70;99.90;;;4.76;67.19;100289.09;4974871;28;20640;-69
2022/02/22 05:05:44;;;;;;;26.63;3.80;;;4.70;99.90;;;4.70;67.30;100289.81;4974559;28;20206;-69
2022/02/22 05:08:13;;;;;;;10.25;3.30;;;4.60;99.90;;;4.76;68.07;100300.66;4974573;28;20325;-69
2022/02/22 05:10:41;;;;;;;31.15;6.95;;;4.70;99.90;;;4.77;67.41;100299.66;4975134;28;20610;-68
2022/02/22 05:13:11;;;;;;;20.33;4.53;;;4.70;99.90;;;4.75;67.60;100309.72;4974350;28;20266;-69
2022/02/22 05:15:40;;;;;;;15.82;4.20;;;4.70;99.90;;;4.77;67.97;100313.06;4974571;28;20180;-69
2022/02/22 05:18:09;;;;;;;14.52;4.13;;;4.70;99.90;;;4.70;67.75;100301.38;4974629;28;20176;-68
2022/02/22 05:20:37;;;;;;;14.82;4.25;;;4.70;99.90;;;4.76;68.55;100314.06;4974988;28;20553;-68
2022/02/22 05:23:23;;;;;;;11.73;4.05;;;4.70;99.90;;;4.74;68.72;100313.41;4974821;28;20184;-68
2022/02/22 05:25:52;;;;;;;13.75;4.15;;;4.70;99.90;;;4.69;67.97;100326.53;4974638;28;20184;-69
2022/02/22 05:28:22;;;;;;;10.45;4.00;;;4.60;99.90;;;4.70;68.16;100328.16;4974661;28;20192;-69
2022/02/22 05:30:51;;;;;;;7.93;2.83;;;4.60;99.90;;;4.71;67.16;100326.31;4974493;28;20207;-69
2022/02/22 05:33:21;;;;;;;13.85;2.42;;;4.60;99.30;;;4.69;67.02;100321.16;4974579;28;20179;-69
2022/02/22 05:35:51;;;;;;;17.27;3.90;;;4.60;97.80;;;4.71;67.55;100345.94;4973924;28;20234;-68
2022/02/22 05:38:21;;;;;;;12.20;3.15;;;4.60;98.40;;;4.70;66.82;100344.25;4973926;28;20188;-70
2022/02/22 05:40:49;;;;;;;12.38;4.40;;;4.60;95.80;;;4.78;66.96;100341.53;4974065;28;20223;-69
2022/02/22 05:43:17;;;;;;;23.02;5.22;;;4.70;96.90;;;4.78;67.50;100346.91;4974123;28;20176;-69
2022/02/22 05:45:48;;;;;;;28.83;4.28;;;4.70;98.00;;;4.81;67.70;100362.63;4973850;28;20222;-69
2022/02/22 05:48:17;;;;;;;21.27;4.18;;;4.70;98.70;;;4.85;67.12;100363.09;4974022;28;20175;-68
2022/02/22 05:50:45;;;;;;;17.23;4.47;;;4.70;97.80;;;4.78;67.12;100379.06;4974065;28;20203;-68
2022/02/22 05:53:13;;;;;;;17.95;4.85;;;4.80;97.40;;;4.80;67.03;100377.03;4974129;28;20211;-68
2022/02/22 05:55:43;;;;;;;29.13;5.10;;;4.70;96.80;;;4.81;67.13;100378.69;4988768;28;20197;-68
2022/02/22 05:58:11;;;;;;;17.40;5.88;;;4.70;97.70;;;4.85;66.79;100391.75;4982396;28;20202;-69
2022/02/22 06:00:40;;;;;;;19.55;5.70;;;4.80;95.30;;;4.82;66.85;100398.31;4980087;28;20588;-69
2022/02/22 06:03:10;;;;;;;14.98;4.68;;;4.70;94.80;;;4.77;66.61;100404.19;4985119;28;20215;-69
2022/02/22 06:05:39;;;;;;;14.45;3.67;;;4.70;93.10;;;4.82;66.26;100411.72;4993088;28;20262;-68
2022/02/22 06:08:07;;;;;;;13.38;4.72;;;4.70;93.00;;;4.78;65.96;100416.59;4993456;28;20551;-68
2022/02/22 06:10:35;;;;;;;18.08;6.25;;;4.70;90.70;;;4.81;66.38;100426.94;4975724;28;20195;-68
2022/02/22 06:13:04;;;;;;;8.98;2.70;;;4.70;92.20;;;4.83;66.34;100429.47;4993021;28;20297;-68
2022/02/22 06:15:32;;;;;;;14.55;5.60;;;4.70;92.60;;;4.87;66.64;100430.78;4993177;28;20183;-69
2022/02/22 06:18:01;;;;;;;16.42;4.32;;;4.80;94.10;;;4.86;66.55;100439.81;4992936;28;20599;-69
2022/02/22 06:20:32;;;;;;;13.70;3.88;;;4.80;93.30;;;4.83;66.79;100434.81;4992847;28;20245;-69
2022/02/22 06:23:01;;;;;;;11.10;4.47;;;4.80;92.20;;;4.87;66.57;100437.97;4993039;28;20206;-69
2022/02/22 06:25:30;;;;;;;24.80;5.65;;;4.80;94.60;;;4.92;67.01;100451.69;4992823;28;20183;-69
2022/02/22 06:27:59;;;;;;;15.75;4.30;;;4.80;95.10;;;4.89;67.28;100444.81;4993200;28;20185;-69
2022/02/22 06:30:28;;;;;;;14.25;4.50;;;4.80;94.80;;;4.93;67.15;100456.06;4992809;28;20187;-69
2022/02/22 06:32:57;;;;;;;21.15;4.82;;;4.80;95.30;;;4.94;67.22;100442.44;4992523;28;20668;-69
2022/02/22 06:35:26;;;;;;;19.80;4.75;;;4.80;96.30;;;5.02;67.13;100450.47;4992633;28;20614;-69
2022/02/22 06:37:56;;;;;;;21.83;6.03;;;4.90;95.60;;;4.98;66.94;100448.31;4992915;28;20225;-69
2022/02/22 06:40:28;;;;;;;17.20;4.05;;;4.90;94.90;;;4.91;66.58;100463.44;4992999;28;20715;-69
2022/02/22 06:42:56;;;;;;;16.25;4.70;;;4.90;93.60;;;4.92;66.93;100465.09;4993417;28;20583;-68
2022/02/22 06:45:28;;;;;;;21.00;6.00;;;4.80;94.50;;;4.97;67.40;100468.94;4993848;28;20241;-70
2022/02/22 06:47:56;;;;;;;18.08;4.70;;;4.80;97.80;;;5.02;66.83;100476.44;4995179;28;20431;-69
2022/02/22 06:50:25;;;;;;;14.57;4.63;;;4.90;96.30;;;4.84;67.08;100470.53;4997284;28;20189;-70
2022/02/22 06:52:53;;;;;;;30.10;6.45;;;4.80;95.30;;;4.87;67.69;100478.19;4996670;28;20468;-68
2022/02/22 06:55:23;;;;;;;20.95;5.07;;;4.80;97.40;;;4.82;67.96;100476.88;4996507;28;20175;-69
2022/02/22 06:57:54;;;;;;;10.77;3.80;;;4.80;97.70;;;4.81;67.76;100482.41;4996456;28;20179;-68
2022/02/22 07:00:23;;;;;;;20.05;6.20;;;4.70;98.50;;;4.93;67.24;100482.88;4996533;28;20187;-68
2022/02/22 07:02:51;;;;;;;12.32;5.13;;;4.80;98.00;;;4.99;67.62;100492.88;4996256;28;20221;-70
2022/02/22 07:05:20;;;;;;;17.88;3.65;;;4.80;98.70;;;4.79;67.50;100493.28;4978925;28;20257;-69
2022/02/22 07:07:55;;;;;;;20.75;6.60;;;4.80;97.30;;;4.69;68.68;100503.44;4996371;28;20555;-69
2022/02/22 07:10:25;;;;;;;24.67;4.32;;;4.70;99.90;;;4.63;68.72;100514.00;4996937;28;20175;-69
2022/02/22 07:12:55;;;;;;;18.80;5.63;;;4.60;99.90;;;4.65;68.79;100511.94;4996200;28;20265;-69
2022/02/22 07:15:23;;;;;;;25.85;5.70;;;4.60;99.90;;;4.67;68.61;100518.81;4996020;28;20570;-69
2022/02/22 07:17:55;;;;;;;14.48;4.55;;;4.60;99.90;;;4.71;68.51;100517.47;4996170;28;20179;-70
2022/02/22 07:20:27;;;;;;;15.23;4.13;;;4.60;99.90;;;4.80;68.22;100521.78;4996097;28;20202;-70
2022/02/22 07:22:56;;;;;;;22.10;4.28;;;4.70;99.90;;;5.02;68.00;100527.41;4978090;28;20226;-69
2022/02/22 07:25:26;;;;;;;21.85;4.28;;;4.90;99.90;;;5.11;66.82;100526.34;4995962;28;20262;-69
2022/02/22 07:27:57;;;;;;;21.13;4.38;;;5.00;96.90;;;5.20;67.08;100544.06;4995923;28;20646;-69
2022/02/22 07:30:27;;;;;;;18.83;4.40;;;5.10;98.00;;;5.20;66.74;100539.53;4995688;28;20182;-69
2022/02/22 07:32:59;;;;;;;22.52;5.75;;;5.10;95.80;;;5.09;67.69;100547.13;4995297;28;20265;-69
2022/02/22 07:35:28;;;;;;;17.98;4.90;;;5.10;96.70;;;5.18;67.13;100549.59;4995768;28;20194;-69
2022/02/22 07:37:57;;;;;;;20.55;4.85;;;5.10;97.40;;;5.08;66.98;100557.00;4995437;28;20187;-69
2022/02/22 07:40:27;;;;;;;16.30;4.50;;;5.00;95.80;;;4.99;67.64;100557.22;4995511;28;20237;-68
2022/02/22 07:42:58;;;;;;;12.57;4.85;;;5.00;96.50;;;4.92;67.82;100561.63;4995581;28;20775;-70
2022/02/22 07:45:26;;;;;;;20.23;5.30;;;4.90;97.90;;;4.95;67.61;100570.16;4995221;28;20269;-69
2022/02/22 07:47:55;;;;;;;14.20;5.75;;;4.90;97.70;;;5.01;67.06;100565.94;4995796;28;20556;-69
2022/02/22 07:50:23;;;;;;;30.10;6.32;;;4.90;97.00;;;5.05;66.84;100580.69;4995476;28;20214;-69
2022/02/22 07:52:52;;;;;;;18.15;4.20;;;5.00;95.60;;;5.10;66.78;100575.63;5095354;23;20241;-68
2022/02/22 07:55:20;;;;;;;22.35;4.10;;;5.00;95.30;;;5.24;66.99;100585.63;4995273;28;20198;-71
2022/02/22 07:57:49;;;;;;;23.20;5.30;;;5.10;96.00;;;5.40;66.67;100593.59;4995395;28;20245;-70
2022/02/22 08:00:19;;;;;;;14.45;5.18;;;5.20;96.30;;;5.32;66.58;100582.91;4994838;28;20217;-71
2022/02/22 08:02:57;;;;;;;25.02;5.25;;;5.20;93.30;;;5.33;66.56;100592.59;4983441;28;20209;-70
2022/02/22 08:05:25;;;;;;;13.57;5.60;;;5.20;93.00;;;5.31;66.19;100589.28;4976316;28;20199;-70
2022/02/22 08:07:54;;;;;;;16.60;4.82;;;5.20;92.10;;;5.43;65.69;100603.13;4976691;28;20274;-70
2022/02/22 08:10:25;;;;;;;13.88;3.63;;;5.30;90.60;;;5.38;65.60;100619.75;4976526;28;20695;-69
2022/02/22 08:12:53;;;;;;;18.20;5.07;;;5.30;84.50;;;5.33;66.11;100614.06;4976411;28;20215;-69
2022/02/22 08:15:23;;;;;;;16.35;4.53;;;5.30;88.10;;;5.35;65.46;100625.47;4976354;28;20628;-70
2022/02/22 08:17:52;;;;;;;19.23;7.07;;;5.30;85.50;;;5.31;66.06;100632.22;4976599;28;20211;-70
2022/02/22 08:20:21;;;;;;;20.50;7.13;;;5.30;89.00;;;5.20;66.13;100630.75;4976027;28;20194;-70
2022/02/22 08:22:51;;;;;;;13.63;4.10;;;5.20;90.20;;;5.32;66.42;100641.09;4975673;28;20740;-70
2022/02/22 08:25:20;;;;;;;18.02;5.18;;;5.20;92.60;;;5.42;66.09;100633.69;4975453;28;20211;-70
2022/02/22 08:27:49;;;;;;;13.57;4.47;;;5.30;91.10;;;5.59;65.80;100636.09;4975158;28;20282;-69
2022/02/22 08:30:17;;;;;;;24.65;5.60;;;5.40;91.40;;;5.68;66.47;100642.25;4975511;28;20723;-69
2022/02/22 08:32:47;;;;;;;21.70;5.85;;;5.50;91.50;;;5.62;65.94;100643.78;4975401;28;20726;-70
2022/02/22 08:35:15;;;;;;;13.13;3.65;;;5.60;90.80;;;5.45;66.69;100649.41;4975625;28;20669;-70
2022/02/22 08:37:44;;;;;;;15.02;3.72;;;5.50;90.80;;;5.44;66.79;100663.84;4975463;28;20226;-70
2022/02/22 08:40:13;;;;;;;17.05;4.82;;;5.40;93.60;;;5.64;66.38;100667.78;4975406;28;20180;-70
2022/02/22 08:42:41;;;;;;;22.30;5.35;;;5.50;94.60;;;5.58;66.51;100677.34;4975519;28;20235;-70
2022/02/22 08:45:24;;;;;;;13.73;3.83;;;5.50;91.70;;;5.59;66.67;100671.00;4975820;28;20203;-70
2022/02/22 08:47:55;;;;;;;14.40;4.38;;;5.50;93.90;;;5.60;66.87;100672.66;4975526;28;20230;-70
2022/02/22 08:50:26;;;;;;;18.13;5.43;;;5.50;93.70;;;5.55;67.35;100688.47;4975715;28;20665;-69
2022/02/22 08:52:55;;;;;;;25.35;4.65;;;5.50;94.80;;;5.64;66.58;100682.03;4958536;28;20746;-68
2022/02/22 08:55:24;;;;;;;14.90;2.95;;;5.60;93.40;;;5.62;65.76;100684.03;4976090;28;20218;-70
2022/02/22 08:57:53;;;;;;;8.25;3.17;;;5.60;89.00;;;5.68;65.62;100683.34;4976877;28;20709;-71
2022/02/22 09:00:23;;;;;;;10.45;3.17;;;5.60;85.50;;;5.75;65.05;100685.34;4959747;28;20262;-70
2022/02/22 09:02:57;;;;;;;10.35;3.60;;;5.70;78.00;;;5.92;64.54;100684.25;4976573;28;20241;-70
2022/02/22 09:05:26;;;;;;;10.63;3.05;;;5.80;77.00;;;6.43;63.34;100678.19;4977893;28;20191;-70
2022/02/22 09:07:55;;;;;;;15.45;4.13;;;6.20;72.70;;;6.52;63.49;100682.50;4977793;28;20542;-69
2022/02/22 09:10:24;;;;;;;10.60;4.38;;;6.30;64.30;;;6.33;63.59;100687.53;4978020;28;20183;-69
2022/02/22 09:12:53;;;;;;;14.15;3.20;;;6.30;58.80;;;6.25;63.05;100688.41;4978065;28;20222;-70
2022/02/22 09:15:25;;;;;;;14.95;3.15;;;6.20;53.80;;;6.43;62.47;100699.72;4979885;28;20195;-69
2022/02/22 09:17:55;;;;;;;12.63;3.72;;;6.30;54.70;;;6.49;62.95;100706.19;4977924;28;20672;-70
2022/02/22 09:20:23;;;;;;;14.00;3.28;;;6.40;53.40;;;6.16;62.69;100710.97;4977358;28;20183;-70
2022/02/22 09:22:53;;;;;;;11.05;3.20;;;6.20;48.80;;;6.03;62.34;100706.19;4974960;28;20730;-69
2022/02/22 09:25:23;;;;;;;6.47;3.08;;;6.10;47.70;;;6.14;61.71;100706.81;4975055;28;20180;-71
2022/02/22 09:27:52;;;;;;;10.77;2.70;;;6.10;46.20;;;5.98;62.44;100710.41;4975214;28;20180;-69
2022/02/22 09:30:21;;;;;;;9.25;3.58;;;5.90;46.30;;;6.45;61.66;100713.78;4974755;28;20190;-70
2022/02/22 09:32:52;;;;;;;11.00;3.03;;;6.20;47.60;;;6.37;62.20;100729.13;4976426;28;20230;-69
2022/02/22 09:35:24;;;;;;;10.40;2.83;;;6.30;44.70;;;6.39;61.73;100735.19;4975772;28;20188;-70
2022/02/22 09:37:54;;;;;;;8.73;2.42;;;6.30;43.30;;;6.55;62.04;100729.66;4976166;28;20180;-71
2022/02/22 09:40:24;;;;;;;10.95;2.33;;;6.40;47.10;;;6.52;62.13;100738.94;4976668;28;20196;-70
2022/02/22 09:42:52;;;;;;;11.50;3.05;;;6.40;46.00;;;6.48;62.04;100740.31;4976497;28;20717;-70
2022/02/22 09:45:22;;;;;;;11.63;3.60;;;6.50;43.80;;;6.63;61.96;100736.84;4956879;28;20191;-69
2022/02/22 09:47:53;;;;;;;10.52;2.85;;;6.50;46.50;;;6.46;62.14;100736.97;4974151;28;20195;-69
2022/02/22 09:50:23;;;;;;;15.90;2.55;;;6.40;45.60;;;6.53;62.35;100735.22;4974234;28;20207;-71
2022/02/22 09:52:51;;;;;;;10.20;3.28;;;6.40;46.60;;;6.47;62.58;100748.56;4973860;28;20278;-71
2022/02/22 09:55:20;;;;;;;15.25;3.35;;;6.40;47.60;;;6.10;63.14;100754.66;4956626;28;20629;-70
2022/02/22 09:57:54;;;;;;;11.93;3.30;;;6.20;46.50;;;6.43;62.42;100753.47;4974218;28;20186;-70
2022/02/22 10:00:26;;;;;;;7.70;3.03;;;6.30;48.70;;;6.38;62.87;100746.94;4974124;28;20218;-70
2022/02/22 10:03:00;;;;;;;19.42;4.00;;;6.30;48.20;;;6.81;61.96;100767.78;4957030;28;20719;-69
2022/02/22 10:05:30;;;;;;;11.45;4.40;;;6.50;48.80;;;6.50;60.85;100757.09;4973869;28;20286;-71
2022/02/22 10:08:01;;;;;;;16.05;3.70;;;6.50;38.80;;;6.55;61.61;100762.78;4974444;28;20184;-71
2022/02/22 10:10:38;;;;;;;14.60;3.38;;;6.50;40.90;;;6.76;60.97;100761.28;4974631;28;20176;-70
2022/02/22 10:13:08;;;;;;;11.95;3.70;;;6.60;39.70;;;7.05;59.31;100766.75;4974427;28;20557;-71
2022/02/22 10:15:39;;;;;;;18.13;3.70;;;6.90;35.00;;;6.76;59.96;100774.72;4974304;28;20176;-71
2022/02/22 10:18:08;;;;;;;8.75;2.42;;;6.70;33.10;;;6.44;59.69;100798.13;4974417;28;20180;-70
2022/02/22 10:20:40;;;;;;;12.27;2.83;;;6.50;30.50;;;6.26;61.30;100778.75;4957626;28;20624;-70
2022/02/22 10:23:11;;;;;;;9.63;3.25;;;6.30;34.90;;;6.43;61.59;100779.50;4977382;28;20281;-70
2022/02/22 10:25:42;;;;;;;13.50;3.20;;;6.30;37.80;;;6.55;61.72;100778.06;4979072;28;20183;-70
2022/02/22 10:28:19;;;;;;;7.60;2.80;;;6.40;39.70;;;6.65;60.56;100775.13;4978334;28;20184;-70
2022/02/22 10:30:52;;;;;;;9.52;3.90;;;6.50;35.90;;;6.47;60.95;100787.03;4979106;28;20175;-71
2022/02/22 10:33:30;;;;;;;18.30;3.42;;;6.40;34.70;;;6.70;59.88;100791.56;4978059;28;20215;-70